Barkersville, New York
Current Conditions -  °F | °C
As of 11:35 AM on Friday 24 Oct 2014 (Local Time) from KNY0 Reporting Station
Overcast Overcast  
Wind Chill: 42°   Ceiling: 3700
Heat Index: 47°   Visibility: 10mi
Dew Point: 43°   Wind: 9mph
Humidity: 86%   Direction: 270°W
Pressure: 29.85"   Gusts: NA
Location:  43.1097°N, 74.0176°W
Report Text: KNY0 241535Z AUTO 27008KT 10SM SCT025 BKN037 OVC050 08/06 A2985 RMK AO2 T00820060
Loading
Personal Weather Stations






























Interactive Weather Map
Tropical Storm Tracking
New forecast layout! Learn more

10-Day Weather Forecast

Advertisements
Track Severe Weather on mobile